Schneifelwetter: Wetterstation Hallschlag, 537 m . NN
Wetterdaten: Freitag, 28.09.2012
Datum Zeit Temp. A. Feuchte A. Luftdruck Regen Wind Richtung Richtung Sonnenschein T Regen Taupunkt Windchill
28.09.2012 00:09 8,4 C 96 % 1013 hPa 0,0 l/m 11,1 km/h (2 Bft) W-SW22.5 245 0 min 0 min 7,8 C 5,2 C
28.09.2012 00:24 8,6 C 96 % 1013 hPa 0,0 l/m 8,5 km/h (2 Bft) W-SW22.5 250 0 min 0 min 8,0 C 7,0 C
28.09.2012 00:39 8,7 C 96 % 1014 hPa 0,0 l/m 12,7 km/h (3 Bft) W-SW22.5 255 0 min 0 min 8,1 C 4,7 C
28.09.2012 00:54 8,7 C 96 % 1014 hPa 0,0 l/m 18,5 km/h (3 Bft) W22.5 260 0 min 0 min 8,1 C 2,1 C
28.09.2012 01:09 8,6 C 96 % 1014 hPa 0,0 l/m 8,8 km/h (2 Bft) W22.5 260 0 min 0 min 8,0 C 6,8 C
28.09.2012 01:24 8,4 C 96 % 1014 hPa 0,0 l/m 14,6 km/h (3 Bft) W-SW22.5 250 0 min 0 min 7,8 C 3,4 C
28.09.2012 01:39 8,3 C 96 % 1014 hPa 0,0 l/m 12,6 km/h (3 Bft) W-SW22.5 240 0 min 0 min 7,7 C 4,2 C
28.09.2012 01:54 8,3 C 96 % 1014 hPa 0,0 l/m 16,7 km/h (3 Bft) W-SW22.5 245 0 min 0 min 7,7 C 2,3 C
28.09.2012 02:08 8,1 C 96 % 1014 hPa 0,0 l/m 15,5 km/h (3 Bft) W-SW22.5 250 0 min 0 min 7,5 C 2,6 C
28.09.2012 02:23 7,5 C 95 % 1014 hPa 0,0 l/m 3,7 km/h (1 Bft) W-SW 250 0 min 0 min 6,8 C 7,5 C
28.09.2012 02:38 6,8 C 95 % 1014 hPa 0,0 l/m 3,4 km/h (1 Bft) W-SW 250 0 min 0 min 6,1 C 6,8 C
28.09.2012 02:53 6,8 C 96 % 1014 hPa 0,0 l/m 12,5 km/h (3 Bft) SW22.5 230 0 min 0 min 6,2 C 2,5 C
28.09.2012 03:08 7,2 C 97 % 1014 hPa 0,0 l/m 13,5 km/h (3 Bft) W-SW22.5 255 0 min 0 min 6,8 C 2,5 C
28.09.2012 03:23 7,4 C 97 % 1015 hPa 0,0 l/m 22,3 km/h (4 Bft) SW45 235 0 min 0 min 7,0 C -0,9 C
28.09.2012 03:38 7,4 C 97 % 1015 hPa 0,0 l/m 15,9 km/h (3 Bft) W-SW45 245 0 min 0 min 7,0 C 1,6 C
28.09.2012 03:53 7,2 C 97 % 1015 hPa 0,0 l/m 8,9 km/h (2 Bft) SW45 230 0 min 0 min 6,8 C 5,2 C
28.09.2012 04:08 7,2 C 97 % 1015 hPa 0,0 l/m 18,6 km/h (3 Bft) SW22.5 235 0 min 0 min 6,8 C 0,2 C
28.09.2012 04:23 7,4 C 97 % 1015 hPa 0,0 l/m 25,3 km/h (4 Bft) W-SW45 240 0 min 0 min 7,0 C -1,8 C
28.09.2012 04:38 7,6 C 97 % 1015 hPa 0,0 l/m 19,1 km/h (3 Bft) W-SW45 250 0 min 0 min 7,2 C 0,5 C
28.09.2012 04:53 7,6 C 97 % 1015 hPa 0,0 l/m 24,3 km/h (4 Bft) SW45 230 0 min 0 min 7,2 C -1,2 C
28.09.2012 05:08 7,6 C 97 % 1015 hPa 0,0 l/m 18,2 km/h (3 Bft) W-SW22.5 250 0 min 0 min 7,2 C 0,9 C
28.09.2012 05:23 7,6 C 97 % 1015 hPa 0,0 l/m 18,6 km/h (3 Bft) W-SW45 240 0 min 0 min 7,2 C 0,7 C
28.09.2012 05:38 7,4 C 97 % 1015 hPa 0,0 l/m 14,3 km/h (3 Bft) W-SW22.5 245 0 min 0 min 7,0 C 2,3 C
28.09.2012 05:53 7,4 C 97 % 1015 hPa 0,0 l/m 14,2 km/h (3 Bft) SW45 220 0 min 0 min 7,0 C 2,4 C
28.09.2012 06:08 7,4 C 97 % 1015 hPa 0,0 l/m 18,1 km/h (3 Bft) SW45 230 0 min 0 min 7,0 C 0,6 C
28.09.2012 06:23 7,4 C 97 % 1015 hPa 0,0 l/m 21,6 km/h (4 Bft) SW45 235 0 min 0 min 7,0 C -0,6 C
28.09.2012 06:38 7,5 C 97 % 1015 hPa 0,0 l/m 16,6 km/h (3 Bft) W-SW22.5 255 0 min 0 min 7,1 C 1,4 C
28.09.2012 06:53 7,5 C 97 % 1015 hPa 0,0 l/m 21,6 km/h (4 Bft) SW45 225 0 min 0 min 7,1 C -0,5 C
28.09.2012 07:08 7,6 C 97 % 1015 hPa 0,0 l/m 21,3 km/h (4 Bft) SW45 225 0 min 0 min 7,2 C -0,3 C
28.09.2012 07:23 7,6 C 97 % 1015 hPa 0,3 l/m 23,0 km/h (4 Bft) SW45 235 0 min 15 min 7,2 C -0,8 C
28.09.2012 07:38 7,7 C 97 % 1015 hPa 0,0 l/m 15,1 km/h (3 Bft) SW45 225 0 min 0 min 7,3 C 2,3 C
28.09.2012 08:00 7,8 C 97 % 1015 hPa 0,0 l/m 18,5 km/h (3 Bft) W-SW45 240 0 min 0 min 7,4 C 1,0 C
28.09.2012 08:15 7,9 C 97 % 1015 hPa 0,0 l/m 32,0 km/h (5 Bft) W-SW67.5 240 0 min 0 min 7,5 C -2,7 C
28.09.2012 08:29 7,9 C 97 % 1015 hPa 0,0 l/m 20,1 km/h (4 Bft) W-SW22.5 255 0 min 0 min 7,5 C 0,5 C
28.09.2012 08:44 8,1 C 97 % 1015 hPa 0,0 l/m 24,8 km/h (4 Bft) W45 260 0 min 0 min 7,7 C -0,7 C
28.09.2012 08:59 8,2 C 96 % 1015 hPa 0,0 l/m 22,3 km/h (4 Bft) SW67.5 235 0 min 0 min 7,6 C 0,2 C
28.09.2012 09:14 8,6 C 96 % 1015 hPa 0,0 l/m 23,6 km/h (4 Bft) SW45 225 0 min 0 min 8,0 C 0,3 C
28.09.2012 09:30 9,0 C 95 % 1016 hPa 0,0 l/m 26,6 km/h (4 Bft) SW45 230 0 min 0 min 8,2 C 0,1 C
28.09.2012 09:45 9,0 C 95 % 1016 hPa 0,0 l/m 21,8 km/h (4 Bft) SW45 225 0 min 0 min 8,2 C 1,4 C
28.09.2012 09:59 9,4 C 95 % 1016 hPa 0,0 l/m 25,0 km/h (4 Bft) SW67.5 215 0 min 0 min 8,6 C 1,0 C
28.09.2012 10:14 9,9 C 94 % 1016 hPa 0,0 l/m 26,6 km/h (4 Bft) SW45 235 0 min 0 min 9,0 C 1,3 C
28.09.2012 10:29 10,0 C 93 % 1016 hPa 0,0 l/m 25,1 km/h (4 Bft) W-SW67.5 240 0 min 0 min 8,9 C 1,8 C
28.09.2012 10:44 10,2 C 92 % 1016 hPa 0,0 l/m 25,8 km/h (4 Bft) SW45 220 0 min 0 min 9,0 C 1,9 C
28.09.2012 11:00 10,3 C 91 % 1016 hPa 0,0 l/m 27,1 km/h (4 Bft) SW45 230 0 min 0 min 8,9 C 1,7 C
28.09.2012 11:15 10,4 C 92 % 1016 hPa 0,0 l/m 34,2 km/h (5 Bft) W45 265 0 min 0 min 9,2 C 0,4 C
28.09.2012 11:29 11,6 C 90 % 1016 hPa 0,0 l/m 27,5 km/h (4 Bft) SW45 220 0 min 0 min 10,0 C 3,4 C
28.09.2012 11:44 11,7 C 87 % 1016 hPa 0,0 l/m 33,4 km/h (5 Bft) W-SW22.5 255 0 min 0 min 9,6 C 2,4 C
28.09.2012 11:59 11,6 C 87 % 1016 hPa 0,0 l/m 33,4 km/h (5 Bft) W-SW45 255 0 min 0 min 9,5 C 2,3 C
28.09.2012 12:14 11,6 C 87 % 1016 hPa 0,0 l/m 24,5 km/h (4 Bft) W-SW45 250 0 min 0 min 9,5 C 4,1 C
28.09.2012 12:30 11,7 C 87 % 1016 hPa 0,0 l/m 24,4 km/h (4 Bft) W22.5 260 0 min 0 min 9,6 C 4,3 C
28.09.2012 12:45 11,2 C 87 % 1016 hPa 0,0 l/m 27,1 km/h (4 Bft) W-SW45 245 0 min 0 min 9,1 C 3,0 C
28.09.2012 12:59 12,4 C 85 % 1016 hPa 0,0 l/m 28,2 km/h (4 Bft) W-SW45 245 0 min 0 min 9,9 C 4,4 C
28.09.2012 13:14 12,8 C 82 % 1016 hPa 0,0 l/m 39,1 km/h (6 Bft) SW67.5 235 0 min 0 min 9,8 C 3,2 C
28.09.2012 13:29 12,9 C 83 % 1016 hPa 0,0 l/m 28,5 km/h (4 Bft) SW67.5 230 0 min 0 min 10,1 C 5,0 C
28.09.2012 13:44 13,4 C 81 % 1016 hPa 0,0 l/m 35,4 km/h (5 Bft) SW45 230 0 min 0 min 10,2 C 4,6 C
28.09.2012 14:00 13,2 C 80 % 1016 hPa 0,0 l/m 27,6 km/h (4 Bft) SW45 225 0 min 0 min 9,8 C 5,6 C
28.09.2012 14:15 13,0 C 81 % 1016 hPa 0,0 l/m 20,6 km/h (4 Bft) SW45 225 0 min 0 min 9,8 C 7,0 C
28.09.2012 14:29 13,2 C 80 % 1016 hPa 0,0 l/m 29,5 km/h (5 Bft) W-SW45 245 0 min 0 min 9,8 C 5,2 C
28.09.2012 14:44 13,3 C 78 % 1016 hPa 0,0 l/m 31,6 km/h (5 Bft) W-SW45 255 0 min 0 min 9,5 C 5,0 C
28.09.2012 14:59 12,8 C 78 % 1016 hPa 0,0 l/m 21,8 km/h (4 Bft) SW45 220 0 min 0 min 9,1 C 6,4 C
28.09.2012 15:14 12,8 C 81 % 1016 hPa 0,0 l/m 17,9 km/h (3 Bft) S45 190 0 min 0 min 9,6 C 7,5 C
28.09.2012 15:30 13,1 C 79 % 1016 hPa 0,0 l/m 24,7 km/h (4 Bft) SW45 220 0 min 0 min 9,5 C 6,1 C
28.09.2012 15:45 13,1 C 78 % 1016 hPa 0,0 l/m 23,6 km/h (4 Bft) SW45 215 0 min 0 min 9,4 C 6,4 C
28.09.2012 15:59 13,2 C 78 % 1015 hPa 0,0 l/m 24,1 km/h (4 Bft) W67.5 260 0 min 0 min 9,4 C 6,4 C
28.09.2012 16:14 13,1 C 79 % 1015 hPa 0,0 l/m 31,0 km/h (5 Bft) W-SW67.5 250 0 min 0 min 9,5 C 4,8 C
28.09.2012 16:29 13,2 C 79 % 1015 hPa 0,0 l/m 20,1 km/h (4 Bft) W-SW67.5 240 0 min 0 min 9,6 C 7,4 C
28.09.2012 16:44 12,9 C 78 % 1015 hPa 0,0 l/m 24,6 km/h (4 Bft) SW45 230 0 min 0 min 9,2 C 5,9 C
28.09.2012 17:00 12,6 C 80 % 1015 hPa 0,0 l/m 15,0 km/h (3 Bft) SW22.5 225 0 min 0 min 9,2 C 8,3 C
28.09.2012 17:15 12,7 C 80 % 1015 hPa 0,0 l/m 23,9 km/h (4 Bft) SW45 230 0 min 0 min 9,3 C 5,7 C
28.09.2012 17:29 12,6 C 81 % 1015 hPa 0,0 l/m 14,6 km/h (3 Bft) W-SW22.5 250 0 min 0 min 9,4 C 8,4 C
28.09.2012 17:44 12,5 C 81 % 1015 hPa 0,0 l/m 15,6 km/h (3 Bft) W-SW45 245 0 min 0 min 9,3 C 7,9 C
28.09.2012 17:59 12,3 C 82 % 1015 hPa 0,0 l/m 12,3 km/h (3 Bft) W-SW 250 0 min 0 min 9,3 C 9,0 C
28.09.2012 18:14 12,2 C 82 % 1015 hPa 0,0 l/m 16,5 km/h (3 Bft) SW22.5 215 0 min 0 min 9,2 C 7,3 C
28.09.2012 18:30 11,9 C 82 % 1015 hPa 0,0 l/m 12,1 km/h (2 Bft) SW22.5 220 0 min 0 min 8,9 C 8,7 C
28.09.2012 18:45 11,5 C 83 % 1015 hPa 0,0 l/m 10,8 km/h (2 Bft) S-SW22.5 195 0 min 0 min 8,7 C 8,8 C
28.09.2012 18:59 11,0 C 84 % 1015 hPa 0,0 l/m 13,4 km/h (3 Bft) S-SW22.5 205 0 min 0 min 8,4 C 7,0 C
28.09.2012 19:14 10,6 C 85 % 1015 hPa 0,0 l/m 12,8 km/h (3 Bft) S-SW22.5 210 0 min 0 min 8,2 C 6,8 C
28.09.2012 19:29 10,3 C 87 % 1015 hPa 0,0 l/m 13,1 km/h (3 Bft) S-SW22.5 200 0 min 0 min 8,2 C 6,3 C
28.09.2012 19:44 10,1 C 87 % 1015 hPa 0,0 l/m 12,6 km/h (3 Bft) S-SW22.5 205 0 min 0 min 8,0 C 6,3 C
28.09.2012 20:00 10,0 C 87 % 1015 hPa 0,0 l/m 10,9 km/h (2 Bft) S-SW22.5 205 0 min 0 min 7,9 C 7,1 C
28.09.2012 20:15 9,9 C 88 % 1015 hPa 0,0 l/m 7,5 km/h (2 Bft) SW 215 0 min 0 min 8,0 C 9,1 C
28.09.2012 20:29 9,6 C 88 % 1015 hPa 0,0 l/m 6,9 km/h (2 Bft) SW 215 0 min 0 min 7,7 C 9,2 C
28.09.2012 20:44 9,0 C 88 % 1015 hPa 0,0 l/m 9,2 km/h (2 Bft) S-SW 205 0 min 0 min 7,1 C 7,0 C
28.09.2012 20:59 8,7 C 90 % 1015 hPa 0,0 l/m 9,7 km/h (2 Bft) S-SW 200 0 min 0 min 7,2 C 6,3 C
28.09.2012 21:14 8,4 C 90 % 1015 hPa 0,0 l/m 11,2 km/h (2 Bft) S-SW 205 0 min 0 min 6,9 C 5,1 C
28.09.2012 21:30 8,1 C 90 % 1015 hPa 0,0 l/m 8,5 km/h (2 Bft) S-SW 205 0 min 0 min 6,6 C 6,5 C
28.09.2012 21:45 7,7 C 91 % 1015 hPa 0,0 l/m 0,1 km/h (0 Bft) S-SW 205 0 min 0 min 6,3 C 7,7 C
28.09.2012 21:59 7,2 C 91 % 1015 hPa 0,0 l/m 0,0 km/h (0 Bft) S-SW 205 0 min 0 min 5,8 C 7,2 C
28.09.2012 22:14 7,1 C 92 % 1015 hPa 0,0 l/m 5,4 km/h (1 Bft) S-SW 205 0 min 0 min 5,9 C 7,1 C
28.09.2012 22:29 7,3 C 93 % 1015 hPa 0,0 l/m 6,7 km/h (2 Bft) W-SW22.5 250 0 min 0 min 6,2 C 7,1 C
28.09.2012 22:44 7,9 C 94 % 1015 hPa 0,0 l/m 16,5 km/h (3 Bft) S-SW22.5 210 0 min 0 min 7,0 C 1,9 C
28.09.2012 23:00 8,4 C 95 % 1015 hPa 0,0 l/m 18,3 km/h (3 Bft) SW45 225 0 min 0 min 7,6 C 1,8 C
28.09.2012 23:15 8,5 C 94 % 1015 hPa 0,0 l/m 20,0 km/h (4 Bft) W-SW45 250 0 min 0 min 7,6 C 1,3 C
28.09.2012 23:29 8,4 C 94 % 1015 hPa 0,0 l/m 12,3 km/h (3 Bft) W-SW45 240 0 min 0 min 7,5 C 4,5 C
28.09.2012 23:44 8,3 C 94 % 1015 hPa 0,0 l/m 14,0 km/h (3 Bft) W22.5 260 0 min 0 min 7,4 C 3,5 C
28.09.2012 23:53 8,4 C 95 % 1015 hPa 0,0 l/m 17,0 km/h (3 Bft) W-SW67.5 250 0 min 0 min 7,6 C 2,3 C
_ Min-Zeit 02:38 14:44 00:09 - 21:59 - - - - 21:59 08:15
Minimum _ 6,8 C 78 % 1013 hPa - 0,0 km/h (0 Bft) - - - - 5,8 C -2,7 C
_ Max-Zeit 13:44 03:08 09:30 07:23 13:14 - - 00:09 07:23 13:44 20:29
Maximum _ 13,4 C 97 % 1016 hPa 0,3 l/m 39,1 km/h
SW (6 Bft)
- - 0 min 15 min 10,2 C 9,2 C
Durchschnitt _ 9,7 C 90 % 1015 hPa #0,3 l/m 18,7 km/h (3 Bft) SW - #0 min. #15 min. 8,1 C 3,9 C